Temperatura - Umidità - Pioggia orarie dal 17-08-2019 al 25-08-2019

Intensità - Direzione vento orarie dal 17-08-2019 al 25-08-2019

Dati orari da stazione meteo dal 17-08-2019 al 25-08-2019

Nome Stazione Data Ora Temperatura [°C] Umidità [%] Pioggia [mm] Intensità vento[km/h] Direzione vento [°]
Savigliano 17-08-2019 02:00 20.2 80.6 0 0.4 30
Savigliano 17-08-2019 03:00 18.5 83.2 0 0 30
Savigliano 17-08-2019 04:00 17.3 86.7 0 0.4 30
Savigliano 17-08-2019 05:00 17.5 88.2 0 0 30
Savigliano 17-08-2019 06:00 17.3 85.9 0 0 30
Savigliano 17-08-2019 07:00 17.2 86.9 0 0 30
Savigliano 17-08-2019 08:00 18.3 85.5 0 0 30
Savigliano 17-08-2019 09:00 20.3 77 0 0 30
Savigliano 17-08-2019 10:00 22.5 71 0 1.1 29
Savigliano 17-08-2019 11:00 23.2 66.6 0 1.1 35
Savigliano 17-08-2019 12:00 25.5 60 0 1.4 32
Savigliano 17-08-2019 13:00 26 55.5 0 1.8 35
Savigliano 17-08-2019 14:00 26.9 54 0 2.2 35
Savigliano 17-08-2019 15:00 27.4 54.5 0 2.5 41
Savigliano 17-08-2019 16:00 27.5 54.5 0 1.1 34
Savigliano 17-08-2019 17:00 27.5 53.3 0 0.7 32
Savigliano 17-08-2019 18:00 27.5 53.8 0 0.4 47
Savigliano 17-08-2019 19:00 25.8 57.7 0 1.4 44
Savigliano 17-08-2019 20:00 24.9 60.9 0 0.4 29
Savigliano 17-08-2019 21:00 24.9 63.5 0 0 29
Savigliano 17-08-2019 22:00 23.7 69 0 0.4 29
Savigliano 17-08-2019 23:00 22.4 68.2 0 0 29
Savigliano 18-08-2019 00:00 22.5 74.2 0 0 29
Savigliano 18-08-2019 01:00 21.2 77.7 0 0.7 29
Savigliano 18-08-2019 02:00 19.7 80.3 0 2.2 30
Savigliano 18-08-2019 03:00 19.6 81.3 0 0.4 29
Savigliano 18-08-2019 04:00 19.8 81.9 0 0.4 30
Savigliano 18-08-2019 05:00 19.5 84.8 0 0.7 30
Savigliano 18-08-2019 06:00 19.4 87.5 0 0 30
Savigliano 18-08-2019 07:00 19 88 0 0 30
Savigliano 18-08-2019 08:00 19.7 86.5 0 0 30
Savigliano 18-08-2019 09:00 21 80.1 0 0 30
Savigliano 18-08-2019 10:00 24.3 68.8 0 0.7 29
Savigliano 18-08-2019 11:00 24.8 66.8 0 1.1 32
Savigliano 18-08-2019 12:00 26.3 60 0 1.1 36
Savigliano 18-08-2019 13:00 26.6 58.7 0 1.4 35
Savigliano 18-08-2019 14:00 27.5 54.1 0 1.8 38
Savigliano 18-08-2019 15:00 27.5 54.4 0 0.7 38
Savigliano 18-08-2019 16:00 27.4 54.5 0 1.1 66
Savigliano 18-08-2019 17:00 27.3 53.6 0 1.1 89
Savigliano 18-08-2019 18:00 25.2 62.2 0 5.4 102
Savigliano 18-08-2019 19:00 25 69.2 0 5.4 32
Savigliano 18-08-2019 20:00 23.9 71.6 0 2.9 31
Savigliano 18-08-2019 21:00 22.4 75.7 0 1.4 31
Savigliano 18-08-2019 22:00 22.2 75.6 0 1.1 31
Savigliano 18-08-2019 23:00 22.7 77 0 0.4 31
Savigliano 19-08-2019 00:00 22.4 78.7 0 1.8 30
Savigliano 19-08-2019 01:00 22 80 0 1.1 31
Savigliano 19-08-2019 02:00 20.1 81.7 0 0.7 31
Savigliano 19-08-2019 03:00 19.8 83.6 0 0.7 31
Savigliano 19-08-2019 04:00 19.7 84.9 0 0.7 30
Savigliano 19-08-2019 05:00 19.7 85.6 0 1.1 30
Savigliano 19-08-2019 06:00 19 87.3 0 0.7 30
Savigliano 19-08-2019 07:00 17.4 87.5 0 1.1 30
Savigliano 19-08-2019 08:00 18.7 87.9 0 1.1 31
Savigliano 19-08-2019 09:00 20.8 81.9 0 2.5 31
Savigliano 19-08-2019 10:00 22.4 75.3 0 1.4 31
Savigliano 19-08-2019 11:00 23.9 70.5 0 2.2 31
Savigliano 19-08-2019 12:00 25 65.9 0 2.5 33
Savigliano 19-08-2019 13:00 27.2 60.8 0 1.4 46
Savigliano 19-08-2019 14:00 27.7 54.9 0 2.2 33
Savigliano 19-08-2019 15:00 27.6 53.7 0 3.2 33
Savigliano 19-08-2019 16:00 27.4 55.6 0 1.4 35
Savigliano 19-08-2019 17:00 27.7 58.5 0 1.4 35
Savigliano 19-08-2019 18:00 26.3 67 0.4 4.7 31
Savigliano 19-08-2019 19:00 24.3 79.4 0 1.1 30
Savigliano 19-08-2019 20:00 24.6 79.5 0 0.4 30
Savigliano 19-08-2019 21:00 23.5 82.5 0 0 257
Savigliano 19-08-2019 22:00 22.2 84.8 0 0 29
Savigliano 19-08-2019 23:00 22.7 86.8 0 0 264
Savigliano 20-08-2019 00:00 21.9 86.2 0 1.1 264
Savigliano 20-08-2019 01:00 20.5 88 0 0.4 29
Savigliano 20-08-2019 02:00 20.5 85.4 0 0.4 29
Savigliano 20-08-2019 03:00 19.8 88 0 0 29
Savigliano 20-08-2019 04:00 20.1 87.8 0 0.4 30
Savigliano 20-08-2019 05:00 20.9 84.5 0 0 257
Savigliano 20-08-2019 06:00 19.6 88.4 0 0.4 29
Savigliano 20-08-2019 07:00 19.6 87.3 0 0 29
Savigliano 20-08-2019 08:00 19.9 87.9 0 0 29
Savigliano 20-08-2019 09:00 20.1 88.2 0 0.4 29
Savigliano 20-08-2019 10:00 21.7 88.4 0 0.4 29
Savigliano 20-08-2019 11:00 22.5 82.3 0 1.4 35
Savigliano 20-08-2019 12:00 22.7 79.9 0 1.1 32
Savigliano 20-08-2019 13:00 24.2 72.2 0 1.4 33
Savigliano 20-08-2019 14:00 25.3 68.5 0 1.1 40
Savigliano 20-08-2019 15:00 26.8 66 0 1.4 235
Savigliano 20-08-2019 16:00 25.9 68.9 0 1.1 143
Savigliano 20-08-2019 17:00 25.4 69 0 0.7 319
Savigliano 20-08-2019 18:00 24.9 69.7 0 1.1 31
Savigliano 20-08-2019 19:00 21.5 81.3 0 4 31
Savigliano 20-08-2019 20:00 19.5 88 0 0.4 35
Savigliano 20-08-2019 21:00 19.6 89.2 0 0.4 31
Savigliano 20-08-2019 22:00 19.9 89.3 0 0.4 30
Savigliano 20-08-2019 23:00 20.1 87.2 0 0.4 29
Savigliano 21-08-2019 00:00 20 88.5 0 0.7 29
Savigliano 21-08-2019 01:00 19.6 89.1 0 0 29
Savigliano 21-08-2019 02:00 20 91.1 0 0 29
Savigliano 21-08-2019 03:00 19.8 89.5 0 0 29
Savigliano 21-08-2019 04:00 19.4 88.8 0 0 29
Savigliano 21-08-2019 05:00 17.7 88.9 0 0 29
Savigliano 21-08-2019 06:00 17.3 92.4 0 0 29
Savigliano 21-08-2019 07:00 17.6 92.3 0 0 29
Savigliano 21-08-2019 08:00 18.1 91.7 0 0 29
Savigliano 21-08-2019 09:00 20.4 88.1 0 0 29
Savigliano 21-08-2019 10:00 22.5 82.1 0 0.4 29
Savigliano 21-08-2019 11:00 24.1 76.7 0 1.1 34
Savigliano 21-08-2019 12:00 24.9 68.7 0 1.1 43
Savigliano 21-08-2019 13:00 26.2 66.3 0 1.4 35
Savigliano 21-08-2019 14:00 27.1 61.9 0 2.2 35
Savigliano 21-08-2019 15:00 27.9 55.7 0 1.4 36
Savigliano 21-08-2019 16:00 28.4 51.2 0 1.1 47
Savigliano 21-08-2019 17:00 29.3 50.9 0 1.1 39
Savigliano 21-08-2019 18:00 27.9 54.1 0 0.7 29
Savigliano 21-08-2019 19:00 27.4 60 0 0 29
Savigliano 21-08-2019 20:00 25.2 65.8 0 2.9 30
Savigliano 21-08-2019 21:00 22.9 72.7 0 2.2 30
Savigliano 21-08-2019 22:00 22.4 75.4 0 1.4 30
Savigliano 21-08-2019 23:00 20.9 81.6 0 1.1 31
Savigliano 22-08-2019 00:00 19.8 82.3 0 0.7 30
Savigliano 22-08-2019 01:00 19.8 82 0 0.4 30
Savigliano 22-08-2019 02:00 19.9 85.9 0 0.4 30
Savigliano 22-08-2019 03:00 20 82 0 0.4 30
Savigliano 22-08-2019 04:00 19.7 85.2 0 0.4 30
Savigliano 22-08-2019 05:00 20 83.4 0 0 30
Savigliano 22-08-2019 06:00 20.2 84.4 0 0.4 29
Savigliano 22-08-2019 07:00 20.1 89 0 0.7 29
Savigliano 22-08-2019 08:00 20 88.8 0 1.8 30
Savigliano 22-08-2019 09:00 17.4 92.2 2.2 5.8 32
Savigliano 22-08-2019 10:00 17 92.9 0.3 4 37
Savigliano 22-08-2019 11:00 17.1 93.2 0.1 2.9 31
Savigliano 22-08-2019 12:00 17.4 92.9 0 4 30
Savigliano 22-08-2019 13:00 21 85.4 0 2.5 30
Savigliano 22-08-2019 14:00 21.8 75.7 0 1.1 31
Savigliano 22-08-2019 15:00 21.7 75.7 0 3.2 32
Savigliano 22-08-2019 16:00 22.8 73.3 0 1.1 33
Savigliano 22-08-2019 17:00 24.6 67.6 0 2.2 31
Savigliano 22-08-2019 18:00 24.2 64.8 0 1.4 34
Savigliano 22-08-2019 19:00 23.5 65.8 0 0.4 34
Savigliano 22-08-2019 20:00 22.9 67.8 0 0 34
Savigliano 22-08-2019 21:00 21.6 73.3 0 0 34
Savigliano 22-08-2019 22:00 19.7 79.6 0 0 34
Savigliano 22-08-2019 23:00 20 82.2 0 1.1 30
Savigliano 23-08-2019 00:00 18.9 82.3 0 0 30
Savigliano 23-08-2019 01:00 17.3 87.3 0 0 30
Savigliano 23-08-2019 02:00 17.1 87.7 0 0.7 204
Savigliano 23-08-2019 03:00 15.5 89.8 0 1.4 30
Savigliano 23-08-2019 04:00 15.1 88.9 0 0 30
Savigliano 23-08-2019 05:00 14.7 87.8 0 0.4 30
Savigliano 23-08-2019 06:00 14.5 87.8 0 0.4 30
Savigliano 23-08-2019 07:00 15 88.8 0 0.4 30
Savigliano 23-08-2019 08:00 14.8 89 0 1.4 31
Savigliano 23-08-2019 09:00 17.5 83.9 0 1.1 30
Savigliano 23-08-2019 10:00 20.9 75.3 0 0.4 30
Savigliano 23-08-2019 11:00 21.7 73.4 0 0.7 29
Savigliano 23-08-2019 12:00 23.6 66.7 0 1.1 30
Savigliano 23-08-2019 13:00 22.8 69.6 0 1.1 38
Savigliano 23-08-2019 14:00 22 76.6 0 1.1 36
Savigliano 23-08-2019 15:00 22.4 73.4 0 0.7 32
Savigliano 23-08-2019 16:00 24.4 68.6 0 2.5 30
Savigliano 23-08-2019 17:00 25.6 62.6 0 1.1 30
Savigliano 23-08-2019 18:00 25.1 62.9 0 1.1 29
Savigliano 23-08-2019 19:00 24.7 69.2 0 0.4 29
Savigliano 23-08-2019 20:00 23.9 68.6 0 0 29
Savigliano 23-08-2019 21:00 22.5 75.3 0 0 29
Savigliano 23-08-2019 22:00 22.2 77.1 0 0 29
Savigliano 23-08-2019 23:00 20.3 81.7 0 0 29
Savigliano 24-08-2019 00:00 19.7 82.5 0 0 29
Savigliano 24-08-2019 01:00 19.5 88.6 0 0.4 29
Savigliano 24-08-2019 02:00 17.7 86.7 0 0 29
Savigliano 24-08-2019 03:00 17.1 87.6 0 0 277
Savigliano 24-08-2019 04:00 17.4 89.6 0 0.4 258
Savigliano 24-08-2019 05:00 16.9 90.3 0 0 231
Savigliano 24-08-2019 06:00 17.3 88.5 0 0 231
Savigliano 24-08-2019 07:00 17.1 92.2 0 0 231
Savigliano 24-08-2019 08:00 17.1 93.2 0 0 229
Savigliano 24-08-2019 09:00 19.2 87.1 0 0 227
Savigliano 24-08-2019 10:00 21.9 74.3 0 0.4 247
Savigliano 24-08-2019 11:00 24.5 68.9 0 0.7 202
Savigliano 24-08-2019 12:00 24.9 68.5 0 1.8 98
Savigliano 24-08-2019 13:00 26.6 60.4 0 1.1 134
Savigliano 24-08-2019 14:00 26.5 53.8 0 2.5 163
Savigliano 24-08-2019 15:00 27.4 54 0 1.1 116
Savigliano 19-08-2019 17:50 0 0 0.1 0 0
Savigliano 19-08-2019 17:55 0 0 0.3 0 0
Savigliano 19-08-2019 18:05 0 0 0.2 0 0
Savigliano 20-08-2019 18:20 0 0 0.5 0 0
Savigliano 20-08-2019 18:25 0 0 3 0 0
Savigliano 20-08-2019 18:30 0 0 4.7 0 0
Savigliano 20-08-2019 18:35 0 0 0.9 0 0
Savigliano 20-08-2019 18:40 0 0 0.1 0 0
Savigliano 22-08-2019 08:05 0 0 6.5 0 0
Savigliano 22-08-2019 08:10 0 0 9 0 0
Savigliano 22-08-2019 08:15 0 0 6.6 0 0
Savigliano 22-08-2019 08:20 0 0 12.3 0 0
Savigliano 22-08-2019 08:25 0 0 8.3 0 0
Savigliano 22-08-2019 08:30 0 0 6.7 0 0
Savigliano 22-08-2019 08:35 0 0 5.7 0 0
Savigliano 22-08-2019 08:40 0 0 3.1 0 0
Savigliano 22-08-2019 08:45 0 0 2.9 0 0
Savigliano 22-08-2019 08:50 0 0 4.3 0 0
Savigliano 22-08-2019 08:55 0 0 4.1 0 0
Savigliano 22-08-2019 09:05 0 0 1.4 0 0
Savigliano 22-08-2019 09:10 0 0 1 0 0
Savigliano 22-08-2019 09:15 0 0 0.7 0 0
Savigliano 22-08-2019 09:20 0 0 0.3 0 0
Savigliano 22-08-2019 09:25 0 0 0.1 0 0
Savigliano 22-08-2019 09:30 0 0 0.1 0 0
Savigliano 22-08-2019 09:35 0 0 0.1 0 0
Savigliano 22-08-2019 09:40 0 0 0.1 0 0
Savigliano 22-08-2019 09:45 0 0 0.2 0 0
Savigliano 22-08-2019 09:50 0 0 0.4 0 0
Savigliano 22-08-2019 09:55 0 0 0.5 0 0
Savigliano 22-08-2019 10:05 0 0 0.1 0 0
Savigliano 22-08-2019 10:10 0 0 0.1 0 0
Savigliano 22-08-2019 10:15 0 0 0.4 0 0
Savigliano 22-08-2019 10:20 0 0 0.5 0 0
Savigliano 22-08-2019 10:25 0 0 0.4 0 0
Savigliano 22-08-2019 10:30 0 0 0.3 0 0
Savigliano 22-08-2019 10:35 0 0 0.2 0 0
Savigliano 22-08-2019 10:40 0 0 0.2 0 0
Savigliano 22-08-2019 10:45 0 0 0.1 0 0
Savigliano 23-08-2019 13:50 0 0 0.1 0 0

Riassuntivo giornaliero del 24-08-2019